Felix-Klein-Gymnasium, Gttingen, 150m NN
Wetterdaten: aktuell Montag, 19.11.2018 02:30
Datum Zeit Temp. A. Feuchte A. Luftdruck Regen Wind Richtung Richtung Sonnenschein Taupunkt Windchill Windben
19.11.2018 02:30 2,7 C 95 % 1021,3 hPa 0,0 mm 6,2 km/h (2 Bft) N-NW 340 0 min 2,0 C 1,0 C 16,1 km/h (3 Bft)
19.11.2018 02:15 2,6 C 95 % 1021,6 hPa 0,0 mm 8,9 km/h (2 Bft) N-NW 330 0 min 1,9 C 0,1 C 16,1 km/h (3 Bft)
19.11.2018 02:00 2,6 C 95 % 1021,7 hPa 0,0 mm 7,1 km/h (2 Bft) NW 317 0 min 1,9 C 0,6 C 12,9 km/h (3 Bft)
19.11.2018 01:45 2,6 C 95 % 1021,9 hPa 0,0 mm 8,1 km/h (2 Bft) NW 316 0 min 1,9 C 0,3 C 12,9 km/h (3 Bft)
19.11.2018 01:30 2,4 C 94 % 1022,1 hPa 0,0 mm 7,3 km/h (2 Bft) N-NW 330 0 min 1,5 C 0,3 C 12,9 km/h (3 Bft)
19.11.2018 01:15 2,3 C 94 % 1022,3 hPa 0,0 mm 4,9 km/h (1 Bft) NW 319 0 min 1,4 C 1,1 C 12,9 km/h (3 Bft)
19.11.2018 01:00 2,3 C 94 % 1022,4 hPa 0,0 mm 6,1 km/h (2 Bft) NW 319 0 min 1,4 C 0,6 C 12,9 km/h (3 Bft)
19.11.2018 00:45 2,1 C 94 % 1022,6 hPa 0,0 mm 7,9 km/h (2 Bft) N-NW 346 0 min 1,2 C -0,2 C 14,5 km/h (3 Bft)
19.11.2018 00:30 1,9 C 94 % 1022,8 hPa 0,0 mm 8,9 km/h (2 Bft) N-NW 340 0 min 1,0 C -0,8 C 14,5 km/h (3 Bft)
19.11.2018 00:15 1,8 C 94 % 1023,1 hPa 0,0 mm 6,7 km/h (2 Bft) N-NW 340 0 min 0,9 C -0,2 C 16,1 km/h (3 Bft)
19.11.2018 00:00 1,8 C 93 % 1023,1 hPa 0,0 mm 10,6 km/h (2 Bft) N-NW 336 0 min 0,8 C -1,3 C 16,1 km/h (3 Bft)
18.11.2018 23:45 1,7 C 93 % 1023,5 hPa 0,0 mm 12,9 km/h (3 Bft) NW 312 0 min 0,7 C -1,9 C 17,7 km/h (3 Bft)
18.11.2018 23:30 1,6 C 93 % 1023,7 hPa 0,0 mm 9,7 km/h (2 Bft) NW 312 0 min 0,6 C -1,3 C 17,7 km/h (3 Bft)
18.11.2018 23:15 1,5 C 93 % 1023,8 hPa 0,0 mm 11,3 km/h (2 Bft) NW 312 0 min 0,5 C -1,8 C 19,3 km/h (3 Bft)
18.11.2018 23:00 1,5 C 93 % 1023,9 hPa 0,0 mm 16,3 km/h (3 Bft) NW 311 0 min 0,5 C -2,8 C 22,5 km/h (4 Bft)
18.11.2018 22:45 1,4 C 92 % 1024,0 hPa 0,0 mm 15,3 km/h (3 Bft) NW 313 0 min 0,2 C -2,7 C 25,7 km/h (4 Bft)
18.11.2018 22:30 1,2 C 92 % 1024,0 hPa 0,0 mm 13,8 km/h (3 Bft) NW 311 0 min 0,0 C -2,7 C 22,5 km/h (4 Bft)
18.11.2018 22:15 1,1 C 91 % 1024,1 hPa 0,0 mm 11,5 km/h (2 Bft) N-NW 342 0 min -0,2 C -2,4 C 17,7 km/h (3 Bft)
18.11.2018 22:00 1,1 C 90 % 1024,4 hPa 0,0 mm 10,5 km/h (2 Bft) N-NW 328 0 min -0,4 C -2,1 C 17,7 km/h (3 Bft)
18.11.2018 21:45 1,2 C 89 % 1024,8 hPa 0,0 mm 12,1 km/h (2 Bft) N-NW 346 0 min -0,4 C -2,4 C 19,3 km/h (3 Bft)
18.11.2018 21:30 1,2 C 87 % 1024,9 hPa 0,0 mm 11,3 km/h (2 Bft) NW 323 0 min -0,7 C -2,2 C 17,7 km/h (3 Bft)
18.11.2018 21:15 1,3 C 85 % 1024,9 hPa 0,0 mm 11,5 km/h (2 Bft) NW 317 0 min -0,9 C -2,1 C 17,7 km/h (3 Bft)
18.11.2018 21:00 1,4 C 84 % 1025,0 hPa 0,0 mm 11,9 km/h (2 Bft) NW 317 0 min -1,0 C -2,1 C 17,7 km/h (3 Bft)
18.11.2018 20:45 1,5 C 81 % 1025,0 hPa 0,0 mm 11,3 km/h (2 Bft) NW 316 0 min -1,4 C -1,8 C 17,7 km/h (3 Bft)
18.11.2018 20:30 1,4 C 79 % 1025,1 hPa 0,0 mm 8,9 km/h (2 Bft) N-NW 341 0 min -1,8 C -1,4 C 16,1 km/h (3 Bft)
18.11.2018 20:15 1,3 C 78 % 1025,1 hPa 0,0 mm 10,3 km/h (2 Bft) N-NW 330 0 min -2,1 C -1,8 C 19,3 km/h (3 Bft)
18.11.2018 20:00 1,2 C 76 % 1025,0 hPa 0,0 mm 8,2 km/h (2 Bft) NW 321 0 min -2,5 C -1,4 C 16,1 km/h (3 Bft)
18.11.2018 19:45 0,7 C 72 % 1025,2 hPa 0,0 mm 4,3 km/h (1 Bft) N-NW 340 0 min -3,8 C 0,7 C 14,5 km/h (3 Bft)
18.11.2018 19:30 0,6 C 72 % 1025,3 hPa 0,0 mm 0,5 km/h (0 Bft) NW 315 0 min -3,9 C 0,6 C 11,3 km/h (2 Bft)
18.11.2018 19:15 0,6 C 68 % 1025,1 hPa 0,0 mm 0,0 km/h (0 Bft) N 7 0 min -4,6 C 0,6 C 0,0 km/h (0 Bft)
18.11.2018 19:00 0,6 C 70 % 1025,3 hPa 0,0 mm 2,4 km/h (1 Bft) N 6 0 min -4,2 C 0,6 C 6,4 km/h (2 Bft)
18.11.2018 18:45 0,6 C 69 % 1025,3 hPa 0,0 mm 5,4 km/h (1 Bft) N-NW 338 0 min -4,4 C -1,1 C 11,3 km/h (2 Bft)
18.11.2018 18:30 0,7 C 68 % 1025,1 hPa 0,0 mm 5,6 km/h (1 Bft) N-NW 330 0 min -4,5 C -1,1 C 14,5 km/h (3 Bft)
18.11.2018 18:15 0,9 C 66 % 1025,0 hPa 0,0 mm 10,6 km/h (2 Bft) N-NW 341 0 min -4,7 C -2,4 C 16,1 km/h (3 Bft)
18.11.2018 18:00 1,2 C 65 % 1025,1 hPa 0,0 mm 8,9 km/h (2 Bft) NW 324 0 min -4,6 C -1,6 C 14,5 km/h (3 Bft)
18.11.2018 17:45 1,4 C 64 % 1025,4 hPa 0,0 mm 8,5 km/h (2 Bft) W-NW 294 0 min -4,6 C -1,2 C 16,1 km/h (3 Bft)
18.11.2018 17:30 1,8 C 63 % 1025,6 hPa 0,0 mm 7,2 km/h (2 Bft) NW 308 0 min -4,5 C -0,4 C 14,5 km/h (3 Bft)
18.11.2018 17:15 2,2 C 62 % 1025,7 hPa 0,0 mm 8,4 km/h (2 Bft) W-NW 296 0 min -4,3 C -0,3 C 16,1 km/h (3 Bft)
18.11.2018 17:00 2,4 C 61 % 1025,8 hPa 0,0 mm 10,0 km/h (2 Bft) W-NW 292 0 min -4,3 C -0,4 C 16,1 km/h (3 Bft)
18.11.2018 16:45 2,7 C 60 % 1026,0 hPa 0,0 mm 9,4 km/h (2 Bft) NW 305 0 min -4,3 C 0,1 C 14,5 km/h (3 Bft)
18.11.2018 16:30 2,8 C 60 % 1025,9 hPa 0,0 mm 10,7 km/h (2 Bft) W-NW 298 0 min -4,2 C -0,1 C 16,1 km/h (3 Bft)
18.11.2018 16:15 3,1 C 60 % 1025,9 hPa 0,0 mm 8,8 km/h (2 Bft) NW 321 0 min -3,9 C 0,7 C 16,1 km/h (3 Bft)
18.11.2018 16:00 3,2 C 59 % 1026,5 hPa 0,0 mm 8,7 km/h (2 Bft) NW 309 0 min -4,0 C 0,8 C 16,1 km/h (3 Bft)
18.11.2018 15:45 3,3 C 60 % 1026,2 hPa 0,0 mm 6,4 km/h (2 Bft) NW 322 0 min -3,7 C 1,6 C 12,9 km/h (3 Bft)
18.11.2018 15:30 3,3 C 62 % 1026,1 hPa 0,0 mm 5,4 km/h (1 Bft) NW 324 0 min -3,3 C 2,0 C 11,3 km/h (2 Bft)
18.11.2018 15:15 3,2 C 62 % 1026,2 hPa 0,0 mm 8,1 km/h (2 Bft) NW 317 0 min -3,4 C 1,0 C 16,1 km/h (3 Bft)
18.11.2018 15:00 3,1 C 66 % 1026,5 hPa 0,0 mm 8,4 km/h (2 Bft) NW 304 0 min -2,6 C 0,8 C 14,5 km/h (3 Bft)
18.11.2018 14:45 3,1 C 66 % 1026,8 hPa 0,0 mm 10,5 km/h (2 Bft) W-NW 303 15 min -2,6 C 0,3 C 17,7 km/h (3 Bft)
18.11.2018 14:30 3,2 C 68 % 1027,1 hPa 0,0 mm 8,4 km/h (2 Bft) W-NW 288 0 min -2,1 C 0,9 C 19,3 km/h (3 Bft)
18.11.2018 14:15 3,1 C 71 % 1027,2 hPa 0,0 mm 8,2 km/h (2 Bft) NW 319 0 min -1,6 C 0,8 C 17,7 km/h (3 Bft)
18.11.2018 14:00 2,7 C 75 % 1027,2 hPa 0,0 mm 10,8 km/h (2 Bft) NW 315 0 min -1,3 C -0,3 C 17,7 km/h (3 Bft)
18.11.2018 13:45 2,7 C 74 % 1027,4 hPa 0,0 mm 9,7 km/h (2 Bft) NW 315 0 min -1,5 C -0,0 C 16,1 km/h (3 Bft)
18.11.2018 13:30 2,9 C 72 % 1027,6 hPa 0,0 mm 6,1 km/h (2 Bft) NW 321 0 min -1,6 C 1,3 C 14,5 km/h (3 Bft)
18.11.2018 13:15 3,0 C 71 % 1027,7 hPa 0,0 mm 0,6 km/h (0 Bft) N 5 0 min -1,7 C 3,0 C 4,8 km/h (1 Bft)
18.11.2018 13:00 2,8 C 71 % 1027,9 hPa 0,0 mm 0,8 km/h (0 Bft) N-NW 338 15 min -1,9 C 2,8 C 6,4 km/h (2 Bft)
18.11.2018 12:45 2,1 C 74 % 1028,0 hPa 0,0 mm 5,5 km/h (1 Bft) N-NW 330 15 min -2,0 C 0,6 C 11,3 km/h (2 Bft)
18.11.2018 12:30 1,2 C 77 % 1028,4 hPa 0,0 mm 9,9 km/h (2 Bft) W-NW 298 15 min -2,4 C -1,9 C 17,7 km/h (3 Bft)
18.11.2018 12:15 0,6 C 80 % 1028,6 hPa 0,0 mm 10,8 km/h (2 Bft) NW 306 15 min -2,4 C -2,8 C 20,9 km/h (4 Bft)
18.11.2018 12:00 0,4 C 80 % 1028,8 hPa 0,0 mm 11,9 km/h (2 Bft) NW 309 0 min -2,6 C -3,3 C 22,5 km/h (4 Bft)
18.11.2018 11:45 0,5 C 80 % 1029,0 hPa 0,0 mm 7,2 km/h (2 Bft) NW 312 0 min -2,5 C -1,9 C 17,7 km/h (3 Bft)
18.11.2018 11:30 0,2 C 80 % 1029,2 hPa 0,0 mm 5,6 km/h (1 Bft) NW 316 0 min -2,8 C -1,6 C 12,9 km/h (3 Bft)
18.11.2018 11:15 0,1 C 80 % 1029,3 hPa 0,0 mm 8,1 km/h (2 Bft) NW 307 15 min -2,9 C -2,7 C 14,5 km/h (3 Bft)
18.11.2018 11:00 -0,3 C 82 % 1029,3 hPa 0,0 mm 8,9 km/h (2 Bft) W-NW 301 15 min -3,0 C -3,4 C 16,1 km/h (3 Bft)
18.11.2018 10:45 -0,4 C 82 % 1029,4 hPa 0,0 mm 12,0 km/h (2 Bft) NW 308 0 min -3,1 C -4,3 C 20,9 km/h (4 Bft)
18.11.2018 10:30 -0,7 C 85 % 1029,5 hPa 0,0 mm 10,2 km/h (2 Bft) N-NW 343 15 min -2,9 C -4,2 C 19,3 km/h (3 Bft)
18.11.2018 10:15 -0,9 C 84 % 1029,5 hPa 0,0 mm 0,9 km/h (0 Bft) N-NW 332 15 min -3,3 C -0,9 C 12,9 km/h (3 Bft)
18.11.2018 10:00 -1,2 C 85 % 1029,4 hPa 0,0 mm 0,0 km/h (0 Bft) N 353 15 min -3,4 C -1,2 C 0,0 km/h (0 Bft)
18.11.2018 09:45 -1,4 C 86 % 1029,8 hPa 0,0 mm 0,0 km/h (0 Bft) N 353 15 min -3,4 C -1,4 C 0,0 km/h (0 Bft)
18.11.2018 09:30 -1,8 C 88 % 1029,8 hPa 0,0 mm 0,1 km/h (0 Bft) NW 315 15 min -3,5 C -1,8 C 3,2 km/h (1 Bft)
18.11.2018 09:15 -2,6 C 91 % 1030,0 hPa 0,0 mm 0,5 km/h (0 Bft) NW 313 15 min -3,9 C -2,6 C 4,8 km/h (1 Bft)
18.11.2018 09:00 -3,0 C 91 % 1030,4 hPa 0,0 mm 4,5 km/h (1 Bft) NW 317 15 min -4,3 C -3,0 C 14,5 km/h (3 Bft)
18.11.2018 08:45 -3,1 C 91 % 1030,5 hPa 0,0 mm 7,8 km/h (2 Bft) NW 320 0 min -4,4 C -6,3 C 16,1 km/h (3 Bft)
18.11.2018 08:30 -3,1 C 92 % 1030,2 hPa 0,0 mm 1,5 km/h (1 Bft) W-NW 299 0 min -4,2 C -3,1 C 14,5 km/h (3 Bft)
18.11.2018 08:15 -3,3 C 92 % 1029,9 hPa 0,0 mm 0,0 km/h (0 Bft) NW 323 0 min -4,4 C -3,3 C 0,0 km/h (0 Bft)
18.11.2018 08:00 -3,4 C 92 % 1029,6 hPa 0,0 mm 0,0 km/h (0 Bft) NW 323 15 min -4,5 C -3,4 C 0,0 km/h (0 Bft)
18.11.2018 07:45 -3,4 C 92 % 1029,8 hPa 0,0 mm 4,6 km/h (1 Bft) NW 323 0 min -4,5 C -5,2 C 12,9 km/h (3 Bft)
18.11.2018 07:30 -3,4 C 92 % 1030,3 hPa 0,0 mm 8,2 km/h (2 Bft) N 351 0 min -4,5 C -6,8 C 17,7 km/h (3 Bft)
18.11.2018 07:15 -3,4 C 93 % 1030,3 hPa 0,0 mm 9,6 km/h (2 Bft) N-NW 327 0 min -4,4 C -7,3 C 16,1 km/h (3 Bft)
18.11.2018 07:00 -3,4 C 93 % 1030,5 hPa 0,0 mm 6,9 km/h (2 Bft) NW 305 0 min -4,4 C -6,3 C 12,9 km/h (3 Bft)
18.11.2018 06:45 -3,3 C 93 % 1030,3 hPa 0,0 mm 4,7 km/h (1 Bft) N 7 0 min -4,3 C -5,2 C 9,7 km/h (2 Bft)
18.11.2018 06:30 -3,3 C 93 % 1030,3 hPa 0,0 mm 3,5 km/h (1 Bft) N-NW 343 0 min -4,3 C -3,3 C 12,9 km/h (3 Bft)
18.11.2018 06:15 -3,3 C 93 % 1030,3 hPa 0,0 mm 6,2 km/h (2 Bft) N-NW 338 0 min -4,3 C -5,9 C 12,9 km/h (3 Bft)
18.11.2018 06:00 -3,1 C 93 % 1030,2 hPa 0,0 mm 0,5 km/h (0 Bft) N-NW 327 0 min -4,1 C -3,1 C 11,3 km/h (2 Bft)
18.11.2018 05:45 -3,0 C 93 % 1030,0 hPa 0,0 mm 0,0 km/h (0 Bft) NW 312 0 min -4,0 C -3,0 C 0,0 km/h (0 Bft)
18.11.2018 05:30 -3,0 C 93 % 1030,3 hPa 0,0 mm 0,0 km/h (0 Bft) NW 310 0 min -4,0 C -3,0 C 0,0 km/h (0 Bft)
18.11.2018 05:15 -2,8 C 93 % 1030,2 hPa 0,0 mm 2,6 km/h (1 Bft) NW 310 0 min -3,8 C -2,8 C 12,9 km/h (3 Bft)
18.11.2018 05:00 -2,7 C 92 % 1030,2 hPa 0,0 mm 3,9 km/h (1 Bft) NW 318 0 min -3,8 C -2,7 C 12,9 km/h (3 Bft)
18.11.2018 04:45 -2,7 C 92 % 1030,5 hPa 0,0 mm 4,0 km/h (1 Bft) N-NW 341 0 min -3,8 C -2,7 C 12,9 km/h (3 Bft)
18.11.2018 04:30 -2,6 C 92 % 1030,5 hPa 0,0 mm 4,0 km/h (1 Bft) NW 306 0 min -3,7 C -2,6 C 11,3 km/h (2 Bft)
18.11.2018 04:15 -2,4 C 92 % 1030,7 hPa 0,0 mm 2,9 km/h (1 Bft) NW 317 0 min -3,5 C -2,4 C 11,3 km/h (2 Bft)
18.11.2018 04:00 -2,4 C 92 % 1031,0 hPa 0,0 mm 2,9 km/h (1 Bft) N-NW 335 0 min -3,5 C -2,4 C 12,9 km/h (3 Bft)
18.11.2018 03:45 -2,3 C 91 % 1030,9 hPa 0,0 mm 8,9 km/h (2 Bft) NW 317 0 min -3,6 C -5,7 C 16,1 km/h (3 Bft)
18.11.2018 03:30 -2,2 C 91 % 1031,1 hPa 0,0 mm 7,5 km/h (2 Bft) NW 314 0 min -3,5 C -5,1 C 14,5 km/h (3 Bft)
18.11.2018 03:15 -2,1 C 90 % 1031,3 hPa 0,0 mm 4,0 km/h (1 Bft) NW 313 0 min -3,5 C -2,1 C 11,3 km/h (2 Bft)
18.11.2018 03:00 -2,0 C 88 % 1031,4 hPa 0,0 mm 0,0 km/h (0 Bft) N-NW 341 0 min -3,7 C -2,0 C 0,0 km/h (0 Bft)
_ Min-Zeit 07:45 16:00 02:30 - 03:00 - - - 18:15 07:15 03:00
Minimum _ -3,5 C 59 % 1021,3 hPa - 0,0 km/h (0 Bft) - - - -4,7 C -7,3 C 0,0 km/h (0 Bft)
_ Max-Zeit 15:30 01:45 03:00 03:00 23:00 - - 08:00 02:30 13:15 22:45
Maximum _ 3,3 C 95 % 1031,4 hPa 0,0 mm 16,3 km/h
NW (3 Bft)
- - 15 min 2,0 C 3,0 C 25,7 km/h
NW (4 Bft)
Durchschnitt _ 0,2 C 83 % 1027,3 hPa #0,0 mm 6,4 km/h (2 Bft) NW - #0 min. -2,5 C -1,6 C 12,8 km/h (3 Bft)